Time;durP1;ratioP1;P1;durP2;ratioP2;P2;SDS_P1;SDS_P2;PMS_P1;PMS_P2;Temp;Humidity;BMP_temperature;BMP_pressure;BME280_temperature;BME280_humidity;BME280_pressure;Samples;Min_cycle;Max_cycle;Signal;HPM_P1;HPM_P2
2022/03/03 00:02:05;;;;;;;4.57;3.60;;;;;;;;;;5015133;28;20269;-64
2022/03/03 00:04:30;;;;;;;4.13;3.08;;;;;;;;;;5007494;28;20277;-63
2022/03/03 00:06:55;;;;;;;4.72;3.40;;;;;;;;;;5006694;28;20042;-62
2022/03/03 00:09:21;;;;;;;5.47;3.87;;;;;;;;;;5006313;28;20620;-64
2022/03/03 00:11:46;;;;;;;4.95;3.60;;;;;;;;;;5007095;28;20091;-64
2022/03/03 00:14:11;;;;;;;4.33;3.20;;;;;;;;;;4993622;28;20050;-64
2022/03/03 00:16:36;;;;;;;4.25;3.28;;;;;;;;;;4997459;28;20030;-63
2022/03/03 00:19:01;;;;;;;6.43;3.42;;;;;;;;;;4992277;28;20017;-62
2022/03/03 00:21:27;;;;;;;4.73;3.13;;;;;;;;;;5037848;28;20025;-62
2022/03/03 00:23:52;;;;;;;4.78;3.30;;;;;;;;;;5006657;28;20265;-62
2022/03/03 00:26:17;;;;;;;5.00;3.57;;;;;;;;;;5004297;28;20489;-62
2022/03/03 00:28:42;;;;;;;4.50;3.40;;;;;;;;;;5003896;28;20539;-63
2022/03/03 00:31:08;;;;;;;3.60;2.90;;;;;;;;;;5018713;28;20473;-63
2022/03/03 00:33:33;;;;;;;4.60;3.25;;;;;;;;;;5003239;28;20041;-62
2022/03/03 00:35:58;;;;;;;4.93;3.20;;;;;;;;;;5003490;28;20018;-63
2022/03/03 00:38:24;;;;;;;4.18;3.17;;;;;;;;;;5002923;28;20030;-61
2022/03/03 00:40:49;;;;;;;4.30;3.23;;;;;;;;;;4987017;28;20030;-62
2022/03/03 00:43:14;;;;;;;4.75;3.22;;;;;;;;;;5002963;28;20034;-63
2022/03/03 00:45:39;;;;;;;4.50;3.50;;;;;;;;;;5003087;28;20036;-63
2022/03/03 00:48:05;;;;;;;4.53;3.30;;;;;;;;;;5003415;28;20764;-63
2022/03/03 00:50:30;;;;;;;4.45;3.10;;;;;;;;;;5003409;28;20335;-63
2022/03/03 00:52:55;;;;;;;4.43;3.20;;;;;;;;;;5006051;28;20040;-62
2022/03/03 00:55:20;;;;;;;4.70;3.27;;;;;;;;;;5022250;28;20028;-62
2022/03/03 00:57:46;;;;;;;4.82;3.30;;;;;;;;;;5021409;28;20280;-63
2022/03/03 01:00:11;;;;;;;4.83;3.27;;;;;;;;;;4995385;28;20022;-62
2022/03/03 01:02:36;;;;;;;4.03;2.92;;;;;;;;;;4998141;28;20394;-62
2022/03/03 01:05:02;;;;;;;4.37;2.87;;;;;;;;;;4986253;28;20030;-63
2022/03/03 01:07:27;;;;;;;3.90;2.95;;;;;;;;;;5002833;28;20046;-63
2022/03/03 01:09:53;;;;;;;3.70;2.90;;;;;;;;;;5002591;28;20516;-62
2022/03/03 01:12:18;;;;;;;4.43;2.97;;;;;;;;;;5002357;28;20018;-63
2022/03/03 01:14:43;;;;;;;5.13;3.43;;;;;;;;;;5002606;28;20791;-64
2022/03/03 01:17:08;;;;;;;3.92;2.90;;;;;;;;;;5002453;28;20775;-63
2022/03/03 01:19:34;;;;;;;4.40;3.13;;;;;;;;;;4994830;28;20088;-62
2022/03/03 01:21:59;;;;;;;4.63;3.07;;;;;;;;;;4993646;28;20022;-59
2022/03/03 01:24:24;;;;;;;3.83;3.17;;;;;;;;;;5001905;28;20277;-62
2022/03/03 01:26:49;;;;;;;3.63;2.97;;;;;;;;;;5002108;28;20272;-62
2022/03/03 01:29:14;;;;;;;3.97;3.00;;;;;;;;;;5002902;28;20021;-63
2022/03/03 01:31:40;;;;;;;4.37;3.10;;;;;;;;;;5005488;28;20368;-62
2022/03/03 01:34:06;;;;;;;4.32;3.30;;;;;;;;;;5004230;28;20324;-58
2022/03/03 01:36:31;;;;;;;4.70;3.15;;;;;;;;;;5022186;28;20132;-58
2022/03/03 01:38:57;;;;;;;3.88;3.20;;;;;;;;;;5022271;28;20661;-63
2022/03/03 01:41:22;;;;;;;4.17;2.97;;;;;;;;;;5022261;28;20414;-63
2022/03/03 01:43:47;;;;;;;4.40;3.10;;;;;;;;;;5012501;28;20289;-61
2022/03/03 01:46:12;;;;;;;3.87;2.90;;;;;;;;;;5003511;28;20346;-62
2022/03/03 01:48:37;;;;;;;3.97;3.27;;;;;;;;;;5003710;28;20034;-59
2022/03/03 01:51:03;;;;;;;4.50;3.13;;;;;;;;;;5003319;28;20295;-63
2022/03/03 01:53:28;;;;;;;3.97;3.00;;;;;;;;;;5004939;28;20316;-62
2022/03/03 01:55:55;;;;;;;3.50;2.60;;;;;;;;;;5005904;28;20056;-63
2022/03/03 01:58:20;;;;;;;3.63;2.80;;;;;;;;;;5006327;28;20742;-58
2022/03/03 02:00:45;;;;;;;4.53;3.00;;;;;;;;;;5037556;28;20452;-60
2022/03/03 02:03:11;;;;;;;3.77;2.77;;;;;;;;;;5003563;28;20080;-61
2022/03/03 02:05:36;;;;;;;3.65;3.10;;;;;;;;;;4997797;28;20026;-57
2022/03/03 02:08:02;;;;;;;4.50;3.15;;;;;;;;;;5003980;28;20647;-63
2022/03/03 02:10:27;;;;;;;4.32;3.13;;;;;;;;;;5004075;28;20125;-63
2022/03/03 02:12:52;;;;;;;4.37;2.97;;;;;;;;;;5003626;28;20121;-62
2022/03/03 02:15:18;;;;;;;4.05;2.78;;;;;;;;;;5003873;28;20316;-59
2022/03/03 02:17:43;;;;;;;4.40;2.95;;;;;;;;;;5004781;28;20029;-63
2022/03/03 02:20:18;;;;;;;4.45;2.88;;;;;;;;;;5004302;28;20095;-61
2022/03/03 02:22:43;;;;;;;3.80;2.75;;;;;;;;;;5004225;28;20033;-65
2022/03/03 02:25:08;;;;;;;4.10;3.00;;;;;;;;;;5003983;28;20018;-61
2022/03/03 02:27:33;;;;;;;3.67;2.92;;;;;;;;;;5003956;28;20349;-63
2022/03/03 02:29:59;;;;;;;4.07;3.10;;;;;;;;;;5004591;28;20025;-58
2022/03/03 02:32:24;;;;;;;4.28;3.08;;;;;;;;;;5004101;28;20264;-61
2022/03/03 02:34:49;;;;;;;3.57;2.67;;;;;;;;;;5003592;28;20030;-58
2022/03/03 02:37:15;;;;;;;4.03;3.27;;;;;;;;;;5004147;28;20569;-62
2022/03/03 02:39:41;;;;;;;4.18;2.97;;;;;;;;;;5004203;28;20882;-65
2022/03/03 02:42:09;;;;;;;3.70;2.85;;;;;;;;;;5003831;28;20420;-60
2022/03/03 02:44:34;;;;;;;3.47;2.65;;;;;;;;;;5003817;28;20534;-57
2022/03/03 02:46:59;;;;;;;3.93;2.83;;;;;;;;;;5004095;28;20513;-64
2022/03/03 02:49:25;;;;;;;3.93;2.97;;;;;;;;;;5003317;28;20733;-57
2022/03/03 02:51:50;;;;;;;4.85;3.08;;;;;;;;;;5003688;28;20109;-60
2022/03/03 02:54:16;;;;;;;4.03;2.95;;;;;;;;;;5003939;28;20120;-58
2022/03/03 02:59:25;;;;;;;3.50;2.90;;;;;;;;;;5005073;28;20271;-58
2022/03/03 03:01:51;;;;;;;4.00;3.05;;;;;;;;;;5003739;28;20500;-60
2022/03/03 03:04:17;;;;;;;4.67;3.27;;;;;;;;;;5003832;28;20096;-57
2022/03/03 03:06:42;;;;;;;4.53;3.20;;;;;;;;;;5003628;28;20342;-58
2022/03/03 03:09:07;;;;;;;3.90;2.72;;;;;;;;;;5003715;28;20022;-62
2022/03/03 03:11:33;;;;;;;3.90;3.10;;;;;;;;;;5003182;28;20032;-60
2022/03/03 03:13:58;;;;;;;4.57;2.90;;;;;;;;;;5003577;28;20053;-63
2022/03/03 03:16:23;;;;;;;4.05;3.17;;;;;;;;;;5003559;28;20782;-62
2022/03/03 03:18:48;;;;;;;3.73;2.90;;;;;;;;;;5003134;28;20060;-63
2022/03/03 03:21:13;;;;;;;3.77;2.73;;;;;;;;;;5003404;28;20277;-65
2022/03/03 03:23:39;;;;;;;4.30;2.77;;;;;;;;;;5005164;28;20029;-60
2022/03/03 03:26:04;;;;;;;4.20;2.90;;;;;;;;;;5007322;28;20022;-59
2022/03/03 03:28:30;;;;;;;3.77;2.70;;;;;;;;;;5006675;28;20276;-62
2022/03/03 03:30:55;;;;;;;4.50;3.15;;;;;;;;;;5006558;28;20890;-63
2022/03/03 03:33:20;;;;;;;4.60;3.72;;;;;;;;;;5002908;28;20503;-64
2022/03/03 03:35:46;;;;;;;3.28;2.78;;;;;;;;;;5003206;28;20366;-64
2022/03/03 03:38:11;;;;;;;3.33;2.70;;;;;;;;;;5002964;28;20036;-64
2022/03/03 03:40:36;;;;;;;4.47;3.13;;;;;;;;;;5003053;28;20415;-63
2022/03/03 03:43:01;;;;;;;4.10;2.77;;;;;;;;;;5002802;28;20095;-63
2022/03/03 03:45:27;;;;;;;4.03;3.05;;;;;;;;;;5002588;28;20360;-60
2022/03/03 03:47:52;;;;;;;4.97;2.90;;;;;;;;;;5003341;28;20124;-65
2022/03/03 03:50:17;;;;;;;3.80;2.78;;;;;;;;;;5002924;28;20029;-63
2022/03/03 03:52:42;;;;;;;3.70;2.73;;;;;;;;;;5002653;28;20111;-64
2022/03/03 03:55:08;;;;;;;4.73;2.93;;;;;;;;;;5002613;28;20268;-65
2022/03/03 03:57:34;;;;;;;4.22;3.00;;;;;;;;;;5002785;28;20033;-64
2022/03/03 03:59:59;;;;;;;4.70;2.90;;;;;;;;;;5003374;28;20487;-64
2022/03/03 04:02:24;;;;;;;5.32;3.45;;;;;;;;;;5005106;28;20563;-65
2022/03/03 04:04:49;;;;;;;4.10;2.95;;;;;;;;;;5005939;28;20405;-64
2022/03/03 04:07:15;;;;;;;4.03;3.13;;;;;;;;;;5006496;28;20049;-63
2022/03/03 04:09:40;;;;;;;4.33;3.00;;;;;;;;;;5006367;28;20402;-65
2022/03/03 04:12:06;;;;;;;4.87;3.10;;;;;;;;;;5005965;28;20292;-64
2022/03/03 04:14:31;;;;;;;4.20;2.70;;;;;;;;;;5006797;28;20036;-64
2022/03/03 04:16:56;;;;;;;3.10;2.60;;;;;;;;;;5006556;28;20385;-64
2022/03/03 04:19:21;;;;;;;3.50;2.67;;;;;;;;;;5005907;28;20363;-63
2022/03/03 04:21:47;;;;;;;4.13;3.03;;;;;;;;;;5015199;28;20108;-64
2022/03/03 04:24:12;;;;;;;4.00;2.90;;;;;;;;;;4995928;28;20116;-63
2022/03/03 04:26:37;;;;;;;3.23;2.43;;;;;;;;;;5005834;28;20465;-64
2022/03/03 04:29:03;;;;;;;4.40;3.00;;;;;;;;;;5006339;28;20301;-64
2022/03/03 04:31:28;;;;;;;4.28;2.78;;;;;;;;;;5006324;28;20033;-64
2022/03/03 04:33:53;;;;;;;3.83;2.60;;;;;;;;;;5005517;28;20037;-64
2022/03/03 04:36:18;;;;;;;3.75;2.60;;;;;;;;;;5006431;28;20029;-63
2022/03/03 04:38:45;;;;;;;3.63;2.83;;;;;;;;;;5005666;28;20636;-65
2022/03/03 04:41:11;;;;;;;4.18;2.67;;;;;;;;;;5005662;28;20107;-64
2022/03/03 04:43:36;;;;;;;4.07;3.10;;;;;;;;;;5005655;28;20049;-64
2022/03/03 04:46:01;;;;;;;3.40;2.60;;;;;;;;;;5005708;28;20057;-64
2022/03/03 04:48:29;;;;;;;4.03;2.80;;;;;;;;;;5005839;28;20277;-61
2022/03/03 04:50:56;;;;;;;3.63;2.63;;;;;;;;;;5005564;28;20281;-64
2022/03/03 04:53:21;;;;;;;3.35;2.50;;;;;;;;;;5005505;28;20116;-64
2022/03/03 04:55:46;;;;;;;3.17;2.80;;;;;;;;;;5005564;28;20580;-61
2022/03/03 04:58:11;;;;;;;3.77;2.83;;;;;;;;;;5005958;28;20032;-64
2022/03/03 05:00:37;;;;;;;3.50;2.87;;;;;;;;;;5005771;28;20104;-61
2022/03/03 05:03:02;;;;;;;3.40;2.77;;;;;;;;;;5006640;28;20829;-64
2022/03/03 05:05:27;;;;;;;3.63;2.77;;;;;;;;;;5006381;28;20691;-63
2022/03/03 05:07:52;;;;;;;4.07;2.57;;;;;;;;;;5005877;28;20296;-64
2022/03/03 05:10:17;;;;;;;3.88;2.83;;;;;;;;;;5005742;28;20052;-64
2022/03/03 05:12:43;;;;;;;3.55;2.60;;;;;;;;;;5005038;28;20034;-64
2022/03/03 05:15:08;;;;;;;3.72;2.58;;;;;;;;;;5005108;28;20018;-64
2022/03/03 05:17:33;;;;;;;3.85;2.60;;;;;;;;;;5005706;28;20408;-64
2022/03/03 05:19:59;;;;;;;3.58;2.55;;;;;;;;;;5005577;28;20026;-62
2022/03/03 05:22:24;;;;;;;3.80;2.73;;;;;;;;;;5005609;28;20048;-64
2022/03/03 05:24:51;;;;;;;4.38;2.72;;;;;;;;;;5004513;28;20307;-61
2022/03/03 05:27:16;;;;;;;4.07;2.60;;;;;;;;;;5004592;28;20037;-63
2022/03/03 05:29:41;;;;;;;4.25;2.83;;;;;;;;;;5005318;28;20034;-63
2022/03/03 05:32:07;;;;;;;4.00;2.60;;;;;;;;;;5005719;28;20475;-62
2022/03/03 05:34:33;;;;;;;3.35;2.33;;;;;;;;;;5005040;28;20500;-64
2022/03/03 05:36:58;;;;;;;3.47;2.63;;;;;;;;;;5005179;28;20578;-64
2022/03/03 05:39:23;;;;;;;4.55;2.80;;;;;;;;;;5005254;28;20025;-64
2022/03/03 05:41:49;;;;;;;3.58;2.65;;;;;;;;;;5004912;28;20054;-64
2022/03/03 05:44:14;;;;;;;3.92;2.75;;;;;;;;;;5004437;28;20045;-64
2022/03/03 05:46:42;;;;;;;4.23;2.60;;;;;;;;;;5004525;28;20087;-62
2022/03/03 05:49:08;;;;;;;4.70;2.90;;;;;;;;;;5004305;28;20269;-61
2022/03/03 05:51:34;;;;;;;3.45;2.50;;;;;;;;;;5004694;28;20144;-62
2022/03/03 05:54:00;;;;;;;5.35;2.50;;;;;;;;;;5003374;28;20096;-58
2022/03/03 05:56:25;;;;;;;3.30;2.50;;;;;;;;;;5003063;28;20034;-59
2022/03/03 05:58:50;;;;;;;4.10;2.47;;;;;;;;;;5035244;28;20033;-58
2022/03/03 06:01:16;;;;;;;4.03;2.70;;;;;;;;;;5003449;28;20657;-58
2022/03/03 06:03:41;;;;;;;4.68;2.95;;;;;;;;;;5003355;28;20578;-58
2022/03/03 06:06:19;;;;;;;3.80;2.90;;;;;;;;;;5003221;28;20018;-59
2022/03/03 06:09:07;;;;;;;3.83;2.83;;;;;;;;;;5003199;28;20042;-59
2022/03/03 06:11:33;;;;;;;4.22;2.60;;;;;;;;;;4996236;28;20115;-59
2022/03/03 06:14:08;;;;;;;4.60;2.80;;;;;;;;;;5001899;28;20099;-60
2022/03/03 06:16:34;;;;;;;4.65;2.58;;;;;;;;;;5003196;28;20013;-59
2022/03/03 06:18:59;;;;;;;3.50;2.25;;;;;;;;;;5004073;28;20029;-59
2022/03/03 06:21:24;;;;;;;4.30;2.60;;;;;;;;;;5000688;28;20115;-59
2022/03/03 06:23:49;;;;;;;3.30;2.60;;;;;;;;;;5002561;28;20659;-60
2022/03/03 06:26:15;;;;;;;4.00;2.63;;;;;;;;;;5002704;28;20322;-59
2022/03/03 06:28:40;;;;;;;4.90;3.17;;;;;;;;;;5003898;28;20104;-58
2022/03/03 06:31:06;;;;;;;3.80;2.50;;;;;;;;;;5022243;28;20372;-62
2022/03/03 06:33:33;;;;;;;4.28;2.90;;;;;;;;;;5021550;28;20362;-57
2022/03/03 06:35:58;;;;;;;3.45;2.35;;;;;;;;;;5021715;28;20089;-55
2022/03/03 06:38:23;;;;;;;3.37;2.50;;;;;;;;;;5019374;28;20042;-59
2022/03/03 06:40:49;;;;;;;3.40;2.40;;;;;;;;;;5003072;28;20368;-56
2022/03/03 06:43:15;;;;;;;3.42;2.47;;;;;;;;;;5003394;28;20033;-58
2022/03/03 06:45:40;;;;;;;3.55;2.60;;;;;;;;;;5003293;28;20021;-58
2022/03/03 06:48:05;;;;;;;3.00;2.43;;;;;;;;;;5003469;28;20026;-57
2022/03/03 06:50:33;;;;;;;3.08;2.50;;;;;;;;;;5003343;28;20033;-59
2022/03/03 06:52:59;;;;;;;3.50;2.35;;;;;;;;;;5034911;28;20092;-57
2022/03/03 06:55:24;;;;;;;4.43;2.47;;;;;;;;;;5036325;28;20038;-58
2022/03/03 06:57:51;;;;;;;4.18;2.50;;;;;;;;;;5035327;28;20085;-57
2022/03/03 07:00:17;;;;;;;3.40;2.70;;;;;;;;;;5003847;28;20021;-58
2022/03/03 07:02:43;;;;;;;3.75;2.42;;;;;;;;;;5003191;28;20535;-59
2022/03/03 07:05:10;;;;;;;3.60;2.47;;;;;;;;;;5034051;28;20079;-58
2022/03/03 07:07:35;;;;;;;3.33;2.47;;;;;;;;;;5002082;28;20339;-59
2022/03/03 07:10:01;;;;;;;5.70;2.43;;;;;;;;;;5026617;28;20499;-57
2022/03/03 07:12:26;;;;;;;5.18;2.88;;;;;;;;;;5002440;28;20268;-58
2022/03/03 07:14:51;;;;;;;3.77;2.67;;;;;;;;;;5034739;28;20026;-58
2022/03/03 07:17:23;;;;;;;4.17;2.70;;;;;;;;;;5002209;28;20076;-57
2022/03/03 07:19:53;;;;;;;3.53;2.53;;;;;;;;;;5002126;28;20036;-58
2022/03/03 07:22:34;;;;;;;3.60;2.92;;;;;;;;;;5034530;28;20037;-59
2022/03/03 07:25:09;;;;;;;4.50;2.80;;;;;;;;;;5003119;28;20124;-60
2022/03/03 07:27:36;;;;;;;3.22;2.53;;;;;;;;;;5002978;28;20033;-58
2022/03/03 07:30:06;;;;;;;3.95;2.63;;;;;;;;;;5034913;28;20022;-59
2022/03/03 07:32:32;;;;;;;;;;;;;;;;;;5004167;28;20026;-58
2022/03/03 07:34:58;;;;;;;3.55;2.58;;;;;;;;;;5002995;28;19970;-59
2022/03/03 07:37:24;;;;;;;6.72;2.90;;;;;;;;;;5007087;28;20496;-57
2022/03/03 07:39:50;;;;;;;4.05;2.40;;;;;;;;;;5039503;28;20014;-59
2022/03/03 07:42:15;;;;;;;3.83;2.40;;;;;;;;;;5038592;28;20517;-59
2022/03/03 07:44:41;;;;;;;4.38;2.60;;;;;;;;;;5006961;28;20284;-59
2022/03/03 07:47:07;;;;;;;6.47;2.72;;;;;;;;;;5006839;28;20072;-58
2022/03/03 07:49:32;;;;;;;4.35;2.40;;;;;;;;;;5007545;28;20502;-57
2022/03/03 07:51:57;;;;;;;4.25;2.80;;;;;;;;;;5040641;28;20014;-58
2022/03/03 07:54:23;;;;;;;6.57;3.40;;;;;;;;;;5009254;28;20049;-59
2022/03/03 07:56:48;;;;;;;3.73;2.30;;;;;;;;;;5008883;28;20030;-59
2022/03/03 07:59:15;;;;;;;2.88;2.15;;;;;;;;;;5007381;28;20280;-60
2022/03/03 08:01:40;;;;;;;4.03;2.70;;;;;;;;;;5025636;28;20022;-57
2022/03/03 08:04:05;;;;;;;4.70;2.42;;;;;;;;;;5014983;28;20037;-61
2022/03/03 08:06:32;;;;;;;5.63;2.47;;;;;;;;;;5005894;28;20022;-60
2022/03/03 08:08:58;;;;;;;5.43;2.70;;;;;;;;;;5037414;28;20905;-59
2022/03/03 08:11:23;;;;;;;3.50;2.60;;;;;;;;;;5005842;28;20013;-57
2022/03/03 08:13:51;;;;;;;3.83;2.57;;;;;;;;;;5038488;28;20516;-59
2022/03/03 08:16:16;;;;;;;3.50;2.40;;;;;;;;;;5007145;28;20283;-59
2022/03/03 08:18:41;;;;;;;3.40;2.50;;;;;;;;;;5000457;28;20026;-60
2022/03/03 08:21:06;;;;;;;4.07;2.53;;;;;;;;;;5004767;28;20041;-61
2022/03/03 08:23:32;;;;;;;5.07;2.70;;;;;;;;;;5006176;28;20265;-58
2022/03/03 08:25:57;;;;;;;4.22;2.70;;;;;;;;;;5005306;28;20277;-58
2022/03/03 08:28:25;;;;;;;3.55;2.50;;;;;;;;;;5006208;28;20032;-58
2022/03/03 08:31:06;;;;;;;4.03;2.88;;;;;;;;;;5006654;28;20568;-59
2022/03/03 08:33:44;;;;;;;3.85;2.47;;;;;;;;;;5006187;28;20026;-58
2022/03/03 08:36:14;;;;;;;5.03;2.80;;;;;;;;;;5005692;28;20022;-58
2022/03/03 08:38:44;;;;;;;3.58;2.47;;;;;;;;;;5004580;28;20469;-58
2022/03/03 08:41:09;;;;;;;4.20;2.50;;;;;;;;;;5037143;28;20068;-57
2022/03/03 08:43:34;;;;;;;4.37;2.50;;;;;;;;;;5006849;28;20131;-57
2022/03/03 08:46:02;;;;;;;5.23;2.90;;;;;;;;;;5006694;28;20268;-58
2022/03/03 08:48:30;;;;;;;7.78;2.47;;;;;;;;;;5005914;28;20017;-58
2022/03/03 08:50:55;;;;;;;3.67;2.63;;;;;;;;;;5006515;28;20040;-59
2022/03/03 08:53:20;;;;;;;3.60;2.40;;;;;;;;;;5038259;28;20034;-60
2022/03/03 08:55:46;;;;;;;4.10;2.33;;;;;;;;;;5013226;28;20056;-60
2022/03/03 08:58:12;;;;;;;3.88;2.42;;;;;;;;;;5004828;28;20115;-59
2022/03/03 09:00:38;;;;;;;3.08;2.53;;;;;;;;;;5004920;28;20010;-61
2022/03/03 09:03:03;;;;;;;4.32;2.95;;;;;;;;;;4997747;28;20033;-61
2022/03/03 09:05:29;;;;;;;4.55;2.50;;;;;;;;;;4998821;28;20028;-58
2022/03/03 09:07:54;;;;;;;3.67;2.50;;;;;;;;;;5005429;28;20052;-60
2022/03/03 09:10:19;;;;;;;4.83;2.50;;;;;;;;;;5005905;28;20113;-58
2022/03/03 09:12:44;;;;;;;3.83;2.40;;;;;;;;;;5018435;28;20272;-57
2022/03/03 09:15:10;;;;;;;4.00;2.43;;;;;;;;;;5024271;28;20044;-57
2022/03/03 09:17:35;;;;;;;5.07;2.90;;;;;;;;;;5020355;28;20260;-56
2022/03/03 09:20:01;;;;;;;3.42;2.38;;;;;;;;;;5023018;28;20026;-57
2022/03/03 09:22:26;;;;;;;4.85;3.03;;;;;;;;;;4998599;28;20018;-57
2022/03/03 09:24:53;;;;;;;4.25;2.53;;;;;;;;;;5004871;28;20531;-56
2022/03/03 09:27:18;;;;;;;3.90;2.90;;;;;;;;;;5004971;28;20030;-58
2022/03/03 09:29:43;;;;;;;4.90;2.77;;;;;;;;;;5005978;28;20623;-59
2022/03/03 09:32:09;;;;;;;4.13;2.72;;;;;;;;;;5015894;28;20503;-56
2022/03/03 09:34:35;;;;;;;5.40;2.92;;;;;;;;;;5023162;28;20091;-58
2022/03/03 09:37:00;;;;;;;5.70;2.80;;;;;;;;;;5024716;28;20033;-57
2022/03/03 09:39:25;;;;;;;4.93;3.00;;;;;;;;;;5024791;28;20060;-58
2022/03/03 09:41:51;;;;;;;4.57;3.20;;;;;;;;;;5014925;28;20517;-57
2022/03/03 09:44:22;;;;;;;6.40;3.63;;;;;;;;;;5005091;28;20018;-58
2022/03/03 09:46:48;;;;;;;5.40;3.10;;;;;;;;;;5003378;28;20140;-57
2022/03/03 09:49:13;;;;;;;5.20;2.97;;;;;;;;;;5023208;28;20120;-57
2022/03/03 09:51:38;;;;;;;5.63;3.00;;;;;;;;;;5024902;28;20275;-57
2022/03/03 09:54:05;;;;;;;6.20;3.00;;;;;;;;;;5024557;28;20288;-58
2022/03/03 09:56:30;;;;;;;5.70;3.15;;;;;;;;;;5024337;28;20116;-58
2022/03/03 09:58:55;;;;;;;6.80;3.40;;;;;;;;;;5023276;28;20179;-58
2022/03/03 10:01:21;;;;;;;5.57;3.47;;;;;;;;;;5006937;28;20041;-58
2022/03/03 10:03:47;;;;;;;5.90;3.45;;;;;;;;;;5003068;28;20127;-58
2022/03/03 10:06:13;;;;;;;6.75;3.00;;;;;;;;;;5004237;28;20010;-58
2022/03/03 10:08:38;;;;;;;5.15;3.28;;;;;;;;;;5003902;28;20052;-58
2022/03/03 10:11:03;;;;;;;5.20;3.07;;;;;;;;;;4997274;28;20111;-58
2022/03/03 10:13:48;;;;;;;6.45;3.65;;;;;;;;;;4992901;28;20034;-58
2022/03/03 10:16:23;;;;;;;5.63;3.10;;;;;;;;;;4987555;28;20022;-57
2022/03/03 10:18:50;;;;;;;4.97;3.13;;;;;;;;;;4984490;28;20537;-56
2022/03/03 10:21:15;;;;;;;6.63;3.50;;;;;;;;;;4985659;28;20049;-56
2022/03/03 10:23:40;;;;;;;8.47;4.20;;;;;;;;;;5022262;28;20048;-57
2022/03/03 10:26:07;;;;;;;6.33;3.90;;;;;;;;;;5004205;28;20268;-56
2022/03/03 10:28:35;;;;;;;4.70;2.92;;;;;;;;;;5004403;28;20030;-57
2022/03/03 10:31:01;;;;;;;8.18;3.38;;;;;;;;;;5004231;28;20058;-57
2022/03/03 10:33:29;;;;;;;7.15;3.28;;;;;;;;;;5003721;28;20414;-56
2022/03/03 10:35:58;;;;;;;6.05;3.22;;;;;;;;;;5003740;28;20037;-59
2022/03/03 10:38:23;;;;;;;6.43;3.50;;;;;;;;;;5003150;28;20373;-59
2022/03/03 10:40:48;;;;;;;5.50;3.00;;;;;;;;;;5001545;28;20080;-55
2022/03/03 10:43:13;;;;;;;5.47;3.70;;;;;;;;;;5025713;28;20268;-58
2022/03/03 10:45:51;;;;;;;4.97;3.23;;;;;;;;;;5003825;28;20045;-59
2022/03/03 10:48:20;;;;;;;6.07;3.00;;;;;;;;;;5004200;28;20120;-59
2022/03/03 10:50:46;;;;;;;5.63;3.10;;;;;;;;;;5035451;28;20472;-57
2022/03/03 10:53:11;;;;;;;5.18;3.17;;;;;;;;;;5003753;28;20026;-57
2022/03/03 10:55:36;;;;;;;5.47;3.20;;;;;;;;;;5003826;28;20025;-58
2022/03/03 10:58:02;;;;;;;6.97;3.50;;;;;;;;;;5003315;28;20049;-59
2022/03/03 11:00:27;;;;;;;4.20;3.00;;;;;;;;;;5035170;28;20103;-59
2022/03/03 11:02:53;;;;;;;5.93;3.10;;;;;;;;;;5003468;28;20026;-57
2022/03/03 11:05:19;;;;;;;5.63;3.03;;;;;;;;;;4986838;28;20029;-58
2022/03/03 11:07:46;;;;;;;5.28;2.92;;;;;;;;;;5010139;28;20038;-57
2022/03/03 11:10:12;;;;;;;5.15;2.85;;;;;;;;;;5011962;28;20026;-59
2022/03/03 11:12:38;;;;;;;5.15;3.17;;;;;;;;;;5016835;28;20025;-59
2022/03/03 11:15:04;;;;;;;5.70;3.33;;;;;;;;;;5022310;28;20033;-58
2022/03/03 11:17:30;;;;;;;6.00;3.00;;;;;;;;;;5004040;28;20557;-60
2022/03/03 11:19:58;;;;;;;6.20;3.25;;;;;;;;;;5004118;28;20037;-58
2022/03/03 11:22:24;;;;;;;5.35;3.03;;;;;;;;;;5034605;28;20444;-58
2022/03/03 11:24:49;;;;;;;6.90;3.35;;;;;;;;;;5003800;28;20030;-59
2022/03/03 11:27:14;;;;;;;5.13;3.20;;;;;;;;;;5003160;28;20044;-57
2022/03/03 11:29:40;;;;;;;6.23;3.20;;;;;;;;;;5010091;28;20096;-58
2022/03/03 11:32:06;;;;;;;7.20;3.33;;;;;;;;;;5005881;28;20121;-58
2022/03/03 11:34:32;;;;;;;7.00;3.67;;;;;;;;;;5023561;28;20033;-58
2022/03/03 11:37:01;;;;;;;6.95;3.85;;;;;;;;;;5023021;28;20017;-58
2022/03/03 11:39:52;;;;;;;5.75;3.70;;;;;;;;;;5017960;28;20018;-57
2022/03/03 11:42:27;;;;;;;5.43;3.08;;;;;;;;;;4986151;28;20046;-57
2022/03/03 11:45:12;;;;;;;5.25;3.40;;;;;;;;;;5000187;28;20182;-57
2022/03/03 11:47:38;;;;;;;5.10;3.08;;;;;;;;;;5004573;28;20121;-57
2022/03/03 11:50:03;;;;;;;6.38;3.33;;;;;;;;;;5031191;28;20101;-56
2022/03/03 11:52:29;;;;;;;6.00;3.10;;;;;;;;;;5003360;28;20466;-57
2022/03/03 11:54:55;;;;;;;5.97;3.10;;;;;;;;;;5002164;28;20028;-58
2022/03/03 11:57:23;;;;;;;4.63;3.00;;;;;;;;;;5006087;28;20268;-58
2022/03/03 11:59:48;;;;;;;5.13;3.10;;;;;;;;;;5022697;28;20083;-58
2022/03/03 12:02:17;;;;;;;5.97;3.43;;;;;;;;;;5012196;28;20496;-58
2022/03/03 12:04:42;;;;;;;6.38;3.13;;;;;;;;;;5002337;28;20272;-58
2022/03/03 12:07:26;;;;;;;5.97;3.17;;;;;;;;;;5002660;28;20476;-61
2022/03/03 12:09:51;;;;;;;6.50;3.25;;;;;;;;;;5002644;28;20029;-57
2022/03/03 12:12:19;;;;;;;5.73;3.13;;;;;;;;;;5002073;28;20022;-58
2022/03/03 12:17:30;;;;;;;5.35;3.35;;;;;;;;;;4972757;28;20516;-58
2022/03/03 12:20:08;;;;;;;7.78;3.42;;;;;;;;;;4969847;28;20483;-57
2022/03/03 12:22:33;;;;;;;5.63;3.03;;;;;;;;;;4982595;28;20527;-58
2022/03/03 12:25:02;;;;;;;5.85;3.28;;;;;;;;;;4985584;28;20015;-60
2022/03/03 12:27:27;;;;;;;5.18;3.10;;;;;;;;;;4986262;28;20030;-60
2022/03/03 12:29:56;;;;;;;6.40;3.60;;;;;;;;;;4978676;28;20050;-61
2022/03/03 12:32:24;;;;;;;6.05;3.20;;;;;;;;;;4986066;28;20562;-57
2022/03/03 12:35:00;;;;;;;5.43;3.03;;;;;;;;;;4986529;28;20042;-59
2022/03/03 12:37:25;;;;;;;5.53;3.10;;;;;;;;;;4984036;28;20033;-60
2022/03/03 12:39:51;;;;;;;6.63;3.33;;;;;;;;;;4985716;28;20420;-59
2022/03/03 12:42:20;;;;;;;7.05;3.78;;;;;;;;;;4984377;28;20294;-57
2022/03/03 12:44:56;;;;;;;4.97;3.00;;;;;;;;;;4986261;28;20034;-56
2022/03/03 12:47:31;;;;;;;6.03;3.50;;;;;;;;;;4985671;28;20171;-60
2022/03/03 12:49:56;;;;;;;5.70;3.20;;;;;;;;;;4985020;28;20033;-58
2022/03/03 12:52:22;;;;;;;5.38;3.05;;;;;;;;;;4984906;28;20026;-57
2022/03/03 12:54:51;;;;;;;6.25;3.20;;;;;;;;;;4985939;28;20045;-57
2022/03/03 12:57:16;;;;;;;6.85;3.33;;;;;;;;;;4986037;28;20037;-57
2022/03/03 12:59:46;;;;;;;6.43;3.30;;;;;;;;;;4986398;28;20031;-57
2022/03/03 13:02:11;;;;;;;5.38;3.10;;;;;;;;;;4985748;28;20022;-56
2022/03/03 13:04:45;;;;;;;4.23;2.93;;;;;;;;;;4981610;28;20026;-58
2022/03/03 13:07:11;;;;;;;5.63;3.38;;;;;;;;;;4976595;28;20515;-58
2022/03/03 13:09:36;;;;;;;7.13;3.28;;;;;;;;;;4975921;28;20026;-58
2022/03/03 13:12:02;;;;;;;5.07;3.05;;;;;;;;;;4975728;28;20516;-57
2022/03/03 13:14:29;;;;;;;6.35;3.42;;;;;;;;;;4975318;28;20120;-58
2022/03/03 13:16:55;;;;;;;5.00;2.90;;;;;;;;;;4980008;28;20042;-57
2022/03/03 13:19:20;;;;;;;5.13;3.00;;;;;;;;;;4985121;28;20014;-57
2022/03/03 13:21:45;;;;;;;5.78;3.45;;;;;;;;;;4986785;28;20026;-58
2022/03/03 13:24:10;;;;;;;5.27;2.80;;;;;;;;;;4981627;28;20027;-57
2022/03/03 13:26:43;;;;;;;6.00;3.20;;;;;;;;;;4984930;28;20042;-58
2022/03/03 13:29:15;;;;;;;4.15;2.60;;;;;;;;;;4985433;28;20465;-57
2022/03/03 13:31:41;;;;;;;6.40;3.20;;;;;;;;;;4971080;28;20023;-58
2022/03/03 13:34:11;;;;;;;5.53;3.28;;;;;;;;;;4969585;28;20042;-58
2022/03/03 13:36:38;;;;;;;5.43;3.10;;;;;;;;;;4967870;28;20497;-59
2022/03/03 13:39:05;;;;;;;5.18;3.03;;;;;;;;;;4968798;28;20139;-57
2022/03/03 13:41:34;;;;;;;4.43;2.80;;;;;;;;;;4970283;28;20127;-57
2022/03/03 13:44:19;;;;;;;6.43;3.25;;;;;;;;;;4970045;28;20027;-58
2022/03/03 13:46:59;;;;;;;4.85;2.92;;;;;;;;;;4966415;28;20417;-58
2022/03/03 13:49:25;;;;;;;4.72;3.13;;;;;;;;;;4966845;28;20303;-59
2022/03/03 13:52:09;;;;;;;5.78;3.13;;;;;;;;;;4969306;28;20023;-58
2022/03/03 13:54:41;;;;;;;5.72;3.00;;;;;;;;;;4966383;28;20234;-58
2022/03/03 13:57:06;;;;;;;5.07;3.13;;;;;;;;;;4967092;28;20031;-58
2022/03/03 13:59:58;;;;;;;4.80;3.10;;;;;;;;;;4968398;28;20045;-58
2022/03/03 14:02:23;;;;;;;4.70;3.00;;;;;;;;;;4964706;28;20034;-57
2022/03/03 14:04:57;;;;;;;6.50;2.93;;;;;;;;;;4966238;28;20074;-58
2022/03/03 14:07:28;;;;;;;5.68;3.20;;;;;;;;;;4974015;28;20080;-58
2022/03/03 14:09:54;;;;;;;4.53;2.97;;;;;;;;;;4964998;28;20046;-57
2022/03/03 14:12:20;;;;;;;5.28;3.30;;;;;;;;;;4965769;28;20057;-56
2022/03/03 14:14:45;;;;;;;5.70;3.20;;;;;;;;;;4968698;28;20523;-57
2022/03/03 14:17:10;;;;;;;4.70;3.10;;;;;;;;;;4970163;28;20584;-57
2022/03/03 14:19:39;;;;;;;4.90;2.97;;;;;;;;;;4966985;28;20026;-57
2022/03/03 14:22:04;;;;;;;4.20;3.10;;;;;;;;;;4968676;28;20093;-57
2022/03/03 14:24:30;;;;;;;5.10;3.10;;;;;;;;;;4965953;28;20027;-58
2022/03/03 14:26:56;;;;;;;4.63;3.30;;;;;;;;;;4965823;28;20011;-57
2022/03/03 14:29:21;;;;;;;4.65;2.90;;;;;;;;;;4970848;28;20352;-58
2022/03/03 14:31:46;;;;;;;4.77;2.90;;;;;;;;;;4966045;28;20113;-58
2022/03/03 14:34:12;;;;;;;5.60;3.17;;;;;;;;;;4968426;28;20126;-57
2022/03/03 14:36:38;;;;;;;4.93;2.75;;;;;;;;;;4965799;28;20117;-56
2022/03/03 14:39:03;;;;;;;3.60;2.45;;;;;;;;;;4965673;28;20512;-57
2022/03/03 14:41:28;;;;;;;4.03;2.90;;;;;;;;;;4967728;28;20504;-57
2022/03/03 14:43:54;;;;;;;4.72;3.10;;;;;;;;;;4979607;28;20026;-56
2022/03/03 14:46:19;;;;;;;5.10;3.00;;;;;;;;;;4982914;28;20058;-57